Time;durP1;ratioP1;P1;durP2;ratioP2;P2;SDS_P1;SDS_P2;PMS_P1;PMS_P2;Temp;Humidity;BMP_temperature;BMP_pressure;BME280_temperature;BME280_humidity;BME280_pressure;Samples;Min_cycle;Max_cycle;Signal;HPM_P1;HPM_P2
2022/12/03 00:00:16;;;;;;;17.20;8.05;;;;;;;10.40;45.15;101958.97;5089841;28;20101;-62
2022/12/03 00:02:41;;;;;;;17.13;7.78;;;;;;;10.43;44.92;101963.25;5106307;28;21686;-62
2022/12/03 00:05:07;;;;;;;24.83;10.10;;;;;;;10.45;44.85;101959.50;5111495;28;20508;-62
2022/12/03 00:07:32;;;;;;;17.65;7.75;;;;;;;10.43;45.50;101958.75;5095896;28;20030;-61
2022/12/03 00:09:57;;;;;;;16.25;7.20;;;;;;;10.45;45.24;101958.66;5074943;28;20048;-62
2022/12/03 00:12:23;;;;;;;14.25;6.90;;;;;;;10.43;44.27;101952.53;5093681;28;20081;-62
2022/12/03 00:14:48;;;;;;;20.00;7.65;;;;;;;10.45;44.77;101954.16;5075299;28;20074;-62
2022/12/03 00:17:14;;;;;;;16.90;7.50;;;;;;;10.47;45.65;101954.03;5075829;28;20020;-62
2022/12/03 00:19:39;;;;;;;24.00;7.30;;;;;;;10.45;44.99;101951.47;5075599;28;20054;-62
2022/12/03 00:22:04;;;;;;;18.92;7.57;;;;;;;10.50;44.96;101954.72;5075474;28;20083;-61
2022/12/03 00:24:30;;;;;;;14.23;6.30;;;;;;;10.50;44.88;101949.34;5093476;28;20055;-61
2022/12/03 00:26:55;;;;;;;17.95;6.35;;;;;;;10.51;45.25;101952.91;5092273;28;20024;-62
2022/12/03 00:29:20;;;;;;;17.48;7.20;;;;;;;10.48;44.67;101947.75;5096166;28;20072;-61
2022/12/03 00:31:46;;;;;;;14.90;6.32;;;;;;;10.50;44.90;101951.16;5097773;28;20031;-62
2022/12/03 00:34:11;;;;;;;15.90;8.32;;;;;;;10.46;45.11;101939.81;5099363;28;20027;-62
2022/12/03 00:36:37;;;;;;;18.88;7.70;;;;;;;10.48;44.96;101947.75;5082329;28;20584;-62
2022/12/03 00:39:02;;;;;;;20.40;6.75;;;;;;;10.46;45.41;101939.81;5099131;28;20034;-62
2022/12/03 00:41:27;;;;;;;14.57;8.18;;;;;;;10.49;44.96;101947.66;5098991;28;20050;-62
2022/12/03 00:43:56;;;;;;;17.85;7.28;;;;;;;10.51;44.92;101944.84;5098447;28;20080;-61
2022/12/03 00:46:24;;;;;;;17.98;7.40;;;;;;;10.47;45.14;101944.19;5082686;28;20090;-62
2022/12/03 00:48:50;;;;;;;18.23;7.45;;;;;;;10.45;44.95;101935.41;5081797;28;20032;-62
2022/12/03 00:51:15;;;;;;;19.65;8.52;;;;;;;10.48;45.20;101945.91;5117295;28;20400;-62
2022/12/03 00:53:40;;;;;;;18.23;7.75;;;;;;;10.47;45.09;101932.63;5116730;28;20019;-62
2022/12/03 00:56:06;;;;;;;12.98;6.43;;;;;;;10.49;45.31;101946.78;5082173;28;20022;-61
2022/12/03 00:58:31;;;;;;;17.27;7.30;;;;;;;10.46;44.85;101937.13;5098736;28;20528;-62
2022/12/03 01:00:57;;;;;;;12.40;6.13;;;;;;;10.46;45.37;101947.00;5098377;28;20032;-61
2022/12/03 01:03:22;;;;;;;17.30;7.80;;;;;;;10.47;45.03;101946.00;5098310;28;20024;-62
2022/12/03 01:05:47;;;;;;;19.17;8.20;;;;;;;10.44;45.11;101943.56;5098766;28;20049;-61
2022/12/03 01:08:13;;;;;;;16.13;7.07;;;;;;;10.47;44.49;101948.69;5081867;28;20407;-62
2022/12/03 01:10:38;;;;;;;13.90;7.07;;;;;;;10.48;44.97;101945.91;5098746;28;20035;-61
2022/12/03 01:13:04;;;;;;;22.42;9.32;;;;;;;10.47;44.85;101946.00;5116462;28;20032;-62
2022/12/03 01:15:29;;;;;;;14.73;7.38;;;;;;;10.46;44.79;101942.50;5116884;28;20027;-62
2022/12/03 01:17:54;;;;;;;16.35;7.82;;;;;;;10.47;44.71;101949.56;5097923;28;20098;-62
2022/12/03 01:20:20;;;;;;;15.35;7.03;;;;;;;10.45;44.41;101943.44;5098395;28;20031;-61
2022/12/03 01:22:45;;;;;;;17.88;7.43;;;;;;;10.48;45.20;101945.91;5081477;28;20438;-62
2022/12/03 01:25:10;;;;;;;16.42;6.95;;;;;;;10.47;44.79;101944.19;5081051;28;20046;-62
2022/12/03 01:27:36;;;;;;;18.70;7.55;;;;;;;10.47;44.91;101943.31;5098098;28;20080;-62
2022/12/03 01:30:01;;;;;;;20.35;8.13;;;;;;;10.46;44.94;101945.19;5098028;28;20492;-62
2022/12/03 01:32:26;;;;;;;18.05;8.38;;;;;;;10.49;45.16;101941.44;5081442;28;20114;-61
2022/12/03 01:34:53;;;;;;;21.73;9.00;;;;;;;10.50;44.82;101949.34;5081249;28;20032;-61
2022/12/03 01:37:22;;;;;;;16.02;7.82;;;;;;;10.48;45.57;101934.34;5098083;28;20066;-62
2022/12/03 01:39:47;;;;;;;16.23;7.75;;;;;;;10.48;45.09;101942.38;5080927;28;20031;-61
2022/12/03 01:42:22;;;;;;;22.77;8.98;;;;;;;10.47;44.56;101944.19;5080062;28;20028;-62
2022/12/03 01:44:50;;;;;;;15.75;7.43;;;;;;;10.46;44.68;101933.59;5081345;28;20533;-62
2022/12/03 01:47:17;;;;;;;17.13;8.45;;;;;;;10.50;45.37;101945.81;5081564;28;20022;-62
2022/12/03 01:49:50;;;;;;;20.25;8.82;;;;;;;10.49;44.68;101933.41;5097857;28;20035;-61
2022/12/03 01:52:18;;;;;;;19.67;7.28;;;;;;;10.48;44.59;101928.97;5081091;28;20396;-62
2022/12/03 01:54:46;;;;;;;19.35;8.40;;;;;;;10.44;44.89;101925.66;5115800;28;20028;-61
2022/12/03 01:57:23;;;;;;;20.23;9.25;;;;;;;10.47;45.34;101932.63;5080431;28;20027;-62
2022/12/03 01:59:49;;;;;;;17.02;7.63;;;;;;;10.47;44.90;101935.28;5097145;28;20507;-61
2022/12/03 02:02:30;;;;;;;16.92;6.93;;;;;;;10.42;44.54;101929.38;5081100;28;20020;-62
2022/12/03 02:04:55;;;;;;;16.00;7.10;;;;;;;10.40;44.88;101929.50;5097280;28;20038;-62
2022/12/03 02:07:32;;;;;;;15.50;7.53;;;;;;;10.39;44.95;101929.59;5080757;28;20463;-61
2022/12/03 02:10:00;;;;;;;12.95;6.35;;;;;;;10.35;45.12;101928.09;5096755;28;20028;-62
2022/12/03 02:12:33;;;;;;;13.40;6.47;;;;;;;10.32;44.51;101934.50;5097102;28;20038;-62
2022/12/03 02:14:59;;;;;;;17.98;7.35;;;;;;;10.29;45.24;101925.81;5097246;28;20035;-62
2022/12/03 02:17:25;;;;;;;15.00;7.35;;;;;;;10.32;45.28;101933.63;5097468;28;20024;-63
2022/12/03 02:19:51;;;;;;;16.23;7.65;;;;;;;10.29;45.05;101928.47;5096986;28;20035;-62
2022/12/03 02:22:27;;;;;;;15.05;6.90;;;;;;;10.28;44.85;101929.44;5080059;28;20041;-62
2022/12/03 02:25:08;;;;;;;17.65;6.05;;;;;;;10.25;45.00;101933.16;5079909;28;20092;-62
2022/12/03 02:27:33;;;;;;;15.13;6.65;;;;;;;10.23;44.71;101923.53;5115222;28;20036;-62
2022/12/03 02:29:59;;;;;;;17.00;6.80;;;;;;;10.21;44.57;101925.44;5080024;28;20032;-61
2022/12/03 02:32:24;;;;;;;13.48;6.60;;;;;;;10.20;44.97;101919.22;5097265;28;20089;-62
2022/12/03 02:34:50;;;;;;;16.50;7.30;;;;;;;10.22;45.00;101924.47;5114955;28;20036;-63
2022/12/03 02:37:23;;;;;;;13.27;6.28;;;;;;;10.24;45.14;101922.56;5096917;28;20114;-62
2022/12/03 02:39:51;;;;;;;16.83;8.10;;;;;;;10.22;44.89;101919.13;5079506;28;20027;-62
2022/12/03 02:42:36;;;;;;;14.70;6.78;;;;;;;10.25;44.94;101924.28;5096511;28;20031;-62
2022/12/03 02:45:04;;;;;;;12.00;6.10;;;;;;;10.23;44.97;101928.88;5081959;28;20039;-62
2022/12/03 02:47:31;;;;;;;16.95;6.97;;;;;;;10.22;44.80;101921.78;5115420;28;20102;-62
2022/12/03 02:49:56;;;;;;;16.08;7.00;;;;;;;10.20;45.06;101921.03;5096531;28;20039;-61
2022/12/03 02:52:22;;;;;;;13.55;6.18;;;;;;;10.19;44.93;101916.66;5096213;28;20035;-61
2022/12/03 02:54:48;;;;;;;16.05;7.55;;;;;;;10.19;45.15;101924.69;5114461;28;20028;-63
2022/12/03 02:57:14;;;;;;;16.63;7.50;;;;;;;10.17;44.93;101916.75;5079777;28;20034;-62
2022/12/03 02:59:39;;;;;;;17.80;7.18;;;;;;;10.16;44.71;101911.50;5059770;28;20078;-62
2022/12/03 03:02:05;;;;;;;18.17;8.07;;;;;;;10.16;45.13;101916.88;5076404;28;20461;-61
2022/12/03 03:04:30;;;;;;;14.55;6.45;;;;;;;10.16;45.65;101916.88;5076116;28;20036;-61
2022/12/03 03:06:55;;;;;;;15.93;7.47;;;;;;;10.13;44.85;101906.34;5076063;28;20036;-61
2022/12/03 03:09:21;;;;;;;16.10;7.20;;;;;;;10.16;45.29;101912.34;5093965;28;20032;-63
2022/12/03 03:11:46;;;;;;;13.90;7.50;;;;;;;10.18;44.66;101904.22;5076175;28;20028;-61
2022/12/03 03:14:12;;;;;;;13.30;6.05;;;;;;;10.20;45.03;101905.84;5094454;28;20531;-61
2022/12/03 03:16:37;;;;;;;13.65;6.18;;;;;;;10.20;45.42;101900.50;5075958;28;20032;-61
2022/12/03 03:19:03;;;;;;;12.43;5.55;;;;;;;10.23;45.10;101894.06;5076403;28;20397;-61
2022/12/03 03:21:28;;;;;;;12.90;6.63;;;;;;;10.19;45.17;101888.06;5094093;28;20035;-62
2022/12/03 03:23:53;;;;;;;15.32;6.43;;;;;;;10.26;45.02;101896.53;5059093;28;20121;-62
2022/12/03 03:26:19;;;;;;;13.43;6.47;;;;;;;10.28;45.20;101897.28;5076536;28;20024;-62
2022/12/03 03:28:48;;;;;;;14.52;6.18;;;;;;;10.25;45.00;101895.69;5075541;28;20028;-61
2022/12/03 03:31:15;;;;;;;16.63;6.35;;;;;;;10.32;44.99;101901.50;5075670;28;20036;-62
2022/12/03 03:33:42;;;;;;;13.32;6.35;;;;;;;10.31;44.97;101900.63;5075967;28;20066;-61
2022/12/03 03:36:08;;;;;;;17.90;7.95;;;;;;;10.33;45.14;101897.88;5075921;28;20578;-62
2022/12/03 03:38:34;;;;;;;16.08;6.72;;;;;;;10.33;45.28;101897.88;5059203;28;20016;-62
2022/12/03 03:41:01;;;;;;;16.40;5.97;;;;;;;10.35;45.47;101895.94;5058909;28;20091;-62
2022/12/03 03:43:28;;;;;;;19.30;6.55;;;;;;;10.35;45.39;101901.31;5075956;28;20051;-61
2022/12/03 03:45:54;;;;;;;15.05;6.78;;;;;;;10.36;45.14;101897.66;5075599;28;20035;-61
2022/12/03 03:48:20;;;;;;;12.68;5.88;;;;;;;10.39;45.04;101901.00;5058721;28;20028;-61
2022/12/03 03:50:46;;;;;;;15.25;6.82;;;;;;;10.36;44.59;101886.94;5075578;28;20028;-62
2022/12/03 03:53:11;;;;;;;16.48;5.93;;;;;;;10.37;44.65;101889.53;5094140;28;20020;-62
2022/12/03 03:55:37;;;;;;;14.18;6.45;;;;;;;10.39;45.29;101887.59;5058652;28;20029;-63
2022/12/03 03:58:02;;;;;;;14.35;6.22;;;;;;;10.33;44.90;101876.47;5058493;28;20102;-62
2022/12/03 04:00:29;;;;;;;15.20;6.70;;;;;;;10.41;45.56;101896.38;5075455;28;20112;-62
2022/12/03 04:02:54;;;;;;;14.07;6.50;;;;;;;10.39;45.18;101884.06;5058646;28;20055;-62
2022/12/03 04:05:21;;;;;;;15.02;6.45;;;;;;;10.42;45.57;101891.88;5093900;28;20059;-61
2022/12/03 04:07:46;;;;;;;15.43;6.68;;;;;;;10.44;45.11;101887.31;5062700;28;20111;-62
2022/12/03 04:12:57;;;;;;;13.35;6.03;;;;;;;10.46;45.16;101878.22;5081873;28;20158;-63
2022/12/03 04:15:23;;;;;;;14.98;6.05;;;;;;;10.46;45.18;101880.88;5097538;28;20485;-61
2022/12/03 04:18:41;;;;;;;14.98;6.60;;;;;;;10.46;45.55;101869.31;5062693;28;20035;-62
2022/12/03 04:20:34;;;;;;;12.55;6.18;;;;;;;10.48;44.67;101881.63;5082384;28;20020;-61
2022/12/03 04:22:59;;;;;;;13.30;6.57;;;;;;;10.47;45.15;101871.00;5062066;28;20032;-62
2022/12/03 04:30:52;;;;;;;18.13;6.70;;;;;;;10.42;45.12;101854.41;5097308;28;20090;-61
2022/12/03 04:36:02;;;;;;;15.70;7.03;;;;;;;10.47;45.14;101873.69;5096922;28;20058;-61
2022/12/03 04:38:27;;;;;;;13.50;5.85;;;;;;;10.47;44.98;101868.31;5079329;28;20032;-61
2022/12/03 04:41:05;;;;;;;15.88;5.75;;;;;;;10.47;45.56;101873.69;5062136;28;20115;-61
2022/12/03 04:43:32;;;;;;;12.52;5.38;;;;;;;10.47;45.20;101869.19;5080582;28;20424;-61
2022/12/03 04:45:58;;;;;;;15.23;6.43;;;;;;;10.46;45.27;101859.47;5078863;28;20032;-61
2022/12/03 04:48:23;;;;;;;14.90;6.53;;;;;;;10.49;44.83;101861.06;5078771;28;20028;-61
2022/12/03 04:50:49;;;;;;;15.40;6.15;;;;;;;10.50;44.81;101858.28;5078468;28;20024;-61
2022/12/03 04:53:14;;;;;;;12.55;5.55;;;;;;;10.51;44.88;101857.31;5078988;28;20031;-61
2022/12/03 04:55:40;;;;;;;14.35;6.30;;;;;;;10.50;45.25;101857.41;5078585;28;20101;-61
2022/12/03 04:58:05;;;;;;;15.73;6.43;;;;;;;10.54;45.44;101869.66;5096516;28;20070;-61
2022/12/03 05:00:30;;;;;;;14.35;6.28;;;;;;;10.54;45.26;101861.63;5061905;28;20554;-61
2022/12/03 05:02:56;;;;;;;22.80;6.95;;;;;;;10.52;45.68;101866.22;5096460;28;20035;-61
2022/12/03 05:05:21;;;;;;;12.05;5.18;;;;;;;10.51;45.33;101868.03;5097209;28;20389;-62
2022/12/03 05:07:46;;;;;;;13.52;6.32;;;;;;;10.51;45.29;101864.50;5096447;28;20401;-61
2022/12/03 05:10:12;;;;;;;12.68;6.05;;;;;;;10.50;45.12;101868.13;5078270;28;20039;-61
2022/12/03 05:12:37;;;;;;;15.95;7.15;;;;;;;10.51;45.15;101867.19;5077861;28;20067;-61
2022/12/03 05:15:04;;;;;;;11.25;5.57;;;;;;;10.49;45.19;101869.09;5078031;28;20028;-61
2022/12/03 05:17:29;;;;;;;11.77;5.82;;;;;;;10.46;45.30;101872.00;5061480;28;20061;-61
2022/12/03 05:22:38;;;;;;;13.10;5.82;;;;;;;10.49;45.08;101874.47;5080623;28;20089;-61
2022/12/03 05:25:04;;;;;;;15.57;6.20;;;;;;;10.47;45.01;101865.66;5061408;28;20036;-62
2022/12/03 05:27:30;;;;;;;20.05;6.85;;;;;;;10.47;44.68;101862.97;5077826;28;20032;-61
2022/12/03 05:29:55;;;;;;;15.02;6.68;;;;;;;10.48;45.18;101870.91;5096092;28;20062;-61
2022/12/03 05:32:21;;;;;;;10.25;5.28;;;;;;;10.49;45.47;101866.44;5078225;28;20115;-61
2022/12/03 05:34:46;;;;;;;15.05;6.50;;;;;;;10.49;44.88;101855.72;5095816;28;20036;-60
2022/12/03 05:37:11;;;;;;;15.38;6.22;;;;;;;10.53;45.17;101868.78;5078177;28;20386;-61
2022/12/03 05:39:37;;;;;;;13.27;5.93;;;;;;;10.54;45.02;101858.94;5077791;28;20111;-61
2022/12/03 05:44:46;;;;;;;15.65;5.75;;;;;;;10.54;45.59;101864.28;5095523;28;20078;-61
2022/12/03 05:47:11;;;;;;;14.35;6.07;;;;;;;10.56;45.65;101859.69;5077979;28;20024;-61
2022/12/03 05:49:37;;;;;;;12.95;6.43;;;;;;;10.54;45.83;101850.91;5095554;28;20123;-61
2022/12/03 05:52:02;;;;;;;18.55;6.90;;;;;;;10.58;45.41;101860.44;5060672;28;20032;-62
2022/12/03 05:54:28;;;;;;;16.77;7.00;;;;;;;10.56;44.57;101851.66;5060515;28;20047;-61
2022/12/03 05:56:53;;;;;;;18.83;7.95;;;;;;;10.58;45.20;101855.06;5060712;28;20028;-62
2022/12/03 05:59:18;;;;;;;14.27;5.80;;;;;;;10.54;45.48;101848.22;5109856;28;20504;-61
2022/12/03 06:01:44;;;;;;;14.40;5.88;;;;;;;10.55;44.92;101852.63;5097881;28;20388;-61
2022/12/03 06:04:09;;;;;;;17.95;7.07;;;;;;;10.52;45.39;101850.16;5080711;28;20035;-61
2022/12/03 06:06:34;;;;;;;12.82;6.25;;;;;;;10.55;45.28;101849.09;5097541;28;20394;-62
2022/12/03 06:09:00;;;;;;;15.43;6.75;;;;;;;10.57;45.27;101860.53;5115622;28;20089;-62
2022/12/03 06:11:25;;;;;;;14.38;5.45;;;;;;;10.57;44.65;101857.88;5097647;28;20408;-61
2022/12/03 06:13:51;;;;;;;20.75;7.78;;;;;;;10.55;44.98;101849.94;5113600;28;20042;-61
2022/12/03 06:16:16;;;;;;;17.95;6.22;;;;;;;10.55;44.59;101857.97;5077110;28;20040;-61
2022/12/03 06:18:42;;;;;;;17.77;6.88;;;;;;;10.53;45.15;101851.84;5076801;28;20560;-62
2022/12/03 06:21:07;;;;;;;16.45;6.63;;;;;;;10.52;45.69;101852.84;5060190;28;20036;-62
2022/12/03 06:23:32;;;;;;;17.08;6.55;;;;;;;10.49;45.31;101842.31;5077300;28;20492;-61
2022/12/03 06:25:58;;;;;;;13.60;6.30;;;;;;;10.52;45.29;101839.44;5059933;28;20039;-61
2022/12/03 06:28:23;;;;;;;15.77;6.85;;;;;;;10.49;45.16;101831.59;5076136;28;20032;-61
2022/12/03 06:30:48;;;;;;;17.63;6.50;;;;;;;10.50;45.02;101842.19;5059721;28;20040;-60
2022/12/03 06:33:16;;;;;;;16.13;6.38;;;;;;;10.47;45.31;101836.19;5060101;28;20028;-62
2022/12/03 06:35:41;;;;;;;20.17;7.15;;;;;;;10.47;45.18;101839.72;5077114;28;20032;-62
2022/12/03 06:38:07;;;;;;;16.98;6.22;;;;;;;10.49;45.18;101845.00;5094929;28;20052;-61
2022/12/03 06:40:32;;;;;;;15.85;6.45;;;;;;;10.46;45.21;101839.84;5076324;28;20595;-61
2022/12/03 06:42:57;;;;;;;14.32;5.78;;;;;;;10.49;45.33;101842.31;5076431;28;20036;-61
2022/12/03 06:45:23;;;;;;;17.00;6.50;;;;;;;10.47;45.29;101841.53;5076191;28;20032;-62
2022/12/03 06:47:48;;;;;;;19.30;6.68;;;;;;;10.48;45.37;101837.91;5059554;28;20488;-61
2022/12/03 06:50:13;;;;;;;15.70;6.47;;;;;;;10.47;45.14;101837.06;5094828;28;20027;-60
2022/12/03 06:52:39;;;;;;;15.70;6.18;;;;;;;10.45;44.78;101838.13;5059527;28;20052;-61
2022/12/03 06:55:05;;;;;;;15.82;7.13;;;;;;;10.44;45.56;101836.41;5076425;28;20446;-61
2022/12/03 06:57:30;;;;;;;15.43;6.55;;;;;;;10.45;45.59;101835.44;5094340;28;20036;-62
2022/12/03 06:59:55;;;;;;;13.82;6.03;;;;;;;10.45;45.31;101843.47;5075881;28;20063;-62
2022/12/03 07:02:21;;;;;;;20.30;6.57;;;;;;;10.44;45.29;101836.41;5076780;28;20115;-61
2022/12/03 07:04:46;;;;;;;22.23;7.00;;;;;;;10.45;45.18;101838.13;5076254;28;20028;-61
2022/12/03 07:07:12;;;;;;;18.52;6.82;;;;;;;10.45;44.49;101838.13;5076349;28;20158;-61
2022/12/03 07:09:37;;;;;;;15.35;6.97;;;;;;;10.44;45.28;101842.63;5076182;28;20055;-61
2022/12/03 07:12:02;;;;;;;15.07;6.10;;;;;;;10.46;45.26;101840.72;5094407;28;20047;-61
2022/12/03 07:14:28;;;;;;;16.05;6.20;;;;;;;10.44;45.01;101841.78;5059887;28;20027;-61
2022/12/03 07:16:53;;;;;;;18.80;6.55;;;;;;;10.43;44.85;101835.56;5068082;28;20032;-61
2022/12/03 07:19:18;;;;;;;18.05;6.45;;;;;;;10.45;45.77;101844.34;5076208;28;20107;-61
2022/12/03 07:21:44;;;;;;;15.30;7.50;;;;;;;10.39;45.10;101831.34;5076160;28;20408;-61
2022/12/03 07:24:09;;;;;;;21.38;6.75;;;;;;;10.41;44.96;101840.13;5075691;28;20116;-61
2022/12/03 07:26:35;;;;;;;13.43;5.82;;;;;;;10.43;44.27;101837.38;5076402;28;20059;-61
2022/12/03 07:29:00;;;;;;;16.73;6.30;;;;;;;10.41;45.13;101837.47;5075950;28;20028;-62
2022/12/03 07:31:25;;;;;;;21.60;8.20;;;;;;;10.41;45.21;101837.47;5059017;28;20036;-61
2022/12/03 07:33:51;;;;;;;16.45;7.18;;;;;;;10.40;45.60;101845.63;5059221;28;20028;-61
2022/12/03 07:36:16;;;;;;;16.83;6.80;;;;;;;10.38;45.05;101837.69;5058995;28;20035;-61
2022/12/03 07:38:41;;;;;;;21.20;7.32;;;;;;;10.40;45.01;101845.63;5058837;28;20035;-61
2022/12/03 07:41:07;;;;;;;18.13;6.80;;;;;;;10.37;45.31;101841.31;5077536;28;20381;-61
2022/12/03 07:43:32;;;;;;;19.35;7.18;;;;;;;10.38;45.08;101836.84;5063453;28;20039;-60
2022/12/03 07:45:57;;;;;;;20.08;6.78;;;;;;;10.35;44.88;101842.38;5080078;28;20127;-61
2022/12/03 07:48:23;;;;;;;15.13;6.15;;;;;;;10.33;45.17;101833.63;5080027;28;20493;-62
2022/12/03 07:50:48;;;;;;;17.27;7.07;;;;;;;10.32;45.20;101839.91;5079388;28;20066;-61
2022/12/03 07:53:14;;;;;;;26.17;6.05;;;;;;;10.35;45.62;101847.75;5063571;28;20047;-63
2022/12/03 07:55:39;;;;;;;15.82;6.38;;;;;;;10.32;45.14;101845.28;5080232;28;20169;-61
2022/12/03 07:58:05;;;;;;;20.35;7.10;;;;;;;10.36;44.93;101850.31;5079863;28;20532;-61
2022/12/03 08:00:30;;;;;;;14.35;5.45;;;;;;;10.34;44.98;101841.53;5080045;28;20034;-61
2022/12/03 08:02:55;;;;;;;16.65;6.75;;;;;;;10.36;45.11;101844.09;5097966;28;20102;-61
2022/12/03 08:05:21;;;;;;;16.23;6.53;;;;;;;10.37;44.97;101849.34;5063778;28;20131;-60
2022/12/03 08:07:46;;;;;;;18.98;6.40;;;;;;;10.36;45.06;101854.78;5079458;28;20028;-61
2022/12/03 08:10:12;;;;;;;15.57;6.85;;;;;;;10.36;44.68;101850.31;5079089;28;20066;-61
2022/12/03 08:12:40;;;;;;;12.23;6.10;;;;;;;10.36;44.76;101844.09;5079315;28;20028;-61
2022/12/03 08:15:16;;;;;;;20.45;6.97;;;;;;;10.37;45.15;101846.69;5080142;28;20039;-61
2022/12/03 08:17:43;;;;;;;15.70;6.18;;;;;;;10.39;44.96;101854.59;5079476;28;20031;-61
2022/12/03 08:20:17;;;;;;;18.52;6.28;;;;;;;10.42;44.86;101854.41;5080828;28;20008;-61
2022/12/03 08:22:44;;;;;;;17.02;6.53;;;;;;;10.42;44.95;101846.34;5079573;28;20081;-61
2022/12/03 08:25:23;;;;;;;19.55;7.82;;;;;;;10.44;45.00;101852.50;5079560;28;20040;-61
2022/12/03 08:27:51;;;;;;;15.48;5.90;;;;;;;10.42;44.99;101843.69;5097339;28;20109;-61
2022/12/03 08:30:17;;;;;;;18.45;6.95;;;;;;;10.45;44.87;101855.06;5079778;28;20039;-61
2022/12/03 08:32:43;;;;;;;25.00;6.90;;;;;;;10.45;45.35;101849.69;5063073;28;20016;-60
2022/12/03 08:35:29;;;;;;;20.75;6.65;;;;;;;10.48;45.12;101854.00;5088129;28;20081;-62
2022/12/03 08:38:00;;;;;;;14.40;6.30;;;;;;;10.48;45.06;101849.50;5093232;28;20024;-61
2022/12/03 08:40:34;;;;;;;20.50;6.97;;;;;;;10.48;44.73;101849.50;5096423;28;20035;-61
2022/12/03 08:43:00;;;;;;;20.77;7.43;;;;;;;10.52;44.58;101844.78;5078329;28;20538;-60
2022/12/03 08:45:28;;;;;;;17.77;6.18;;;;;;;10.58;44.70;101849.72;5096669;28;20059;-60
2022/12/03 08:48:02;;;;;;;18.73;6.68;;;;;;;10.60;44.88;101857.66;5096429;28;20069;-60
2022/12/03 08:50:41;;;;;;;15.98;5.90;;;;;;;10.60;45.11;101857.66;5078780;28;20027;-62
2022/12/03 08:53:28;;;;;;;21.85;7.05;;;;;;;10.62;44.54;101855.72;5078173;28;20040;-61
2022/12/03 08:56:00;;;;;;;22.90;7.13;;;;;;;10.67;44.77;101859.81;5096186;28;20032;-62
2022/12/03 08:58:47;;;;;;;25.17;6.88;;;;;;;10.71;44.45;101863.16;5073537;28;20079;-63
2022/12/03 09:01:12;;;;;;;17.75;6.25;;;;;;;10.73;45.39;101863.91;5041359;28;20040;-60
2022/12/03 09:03:48;;;;;;;15.20;6.10;;;;;;;10.71;44.45;101861.34;5075798;28;20029;-62
2022/12/03 09:06:13;;;;;;;18.05;6.22;;;;;;;10.75;45.03;101857.47;5057969;28;20032;-61
2022/12/03 09:08:38;;;;;;;17.30;5.43;;;;;;;10.79;44.37;101858.13;5058013;28;20047;-61
2022/12/03 09:11:04;;;;;;;22.25;6.82;;;;;;;10.78;44.52;101846.53;5058073;28;20523;-60
2022/12/03 09:13:29;;;;;;;23.30;6.95;;;;;;;10.83;45.06;101844.38;5041208;28;20039;-60
2022/12/03 09:15:54;;;;;;;20.90;6.82;;;;;;;10.87;44.27;101867.34;5058203;28;20035;-61
2022/12/03 09:18:20;;;;;;;19.55;6.75;;;;;;;10.81;44.47;101857.03;5041566;28;20041;-60
2022/12/03 09:20:45;;;;;;;12.80;6.20;;;;;;;10.85;44.57;101855.88;5057632;28;20406;-60
2022/12/03 09:23:11;;;;;;;19.42;6.28;;;;;;;10.84;44.63;101862.19;5058128;28;20016;-60
2022/12/03 09:25:36;;;;;;;22.50;7.70;;;;;;;10.84;45.33;101861.34;5075517;28;20111;-60
2022/12/03 09:28:01;;;;;;;20.98;6.40;;;;;;;10.84;44.39;101859.53;5057381;28;20565;-60
2022/12/03 09:30:27;;;;;;;17.15;7.22;;;;;;;10.82;44.39;101856.09;5057487;28;20024;-60
2022/12/03 09:32:52;;;;;;;22.05;6.85;;;;;;;10.88;44.95;101873.56;5057759;28;20024;-60
2022/12/03 09:35:17;;;;;;;18.55;6.80;;;;;;;10.84;44.61;101866.69;5057823;28;20062;-60
2022/12/03 09:37:43;;;;;;;18.85;6.90;;;;;;;10.84;44.70;101864.00;5040605;28;20043;-61
2022/12/03 09:40:09;;;;;;;20.85;6.75;;;;;;;10.82;44.19;101864.13;5057465;28;20028;-61
2022/12/03 09:42:35;;;;;;;17.77;7.35;;;;;;;10.78;44.90;101846.53;5056668;28;20036;-60
2022/12/03 09:45:01;;;;;;;19.42;6.75;;;;;;;10.86;44.72;101860.25;5057329;28;20056;-61
2022/12/03 09:47:28;;;;;;;21.27;6.85;;;;;;;10.84;44.50;101851.47;5057735;28;20017;-61
2022/12/03 09:49:54;;;;;;;16.23;6.35;;;;;;;10.85;44.67;101858.56;5057508;28;20052;-60
2022/12/03 09:52:26;;;;;;;23.45;6.53;;;;;;;10.81;44.03;101851.69;5058021;28;20068;-60
2022/12/03 09:54:51;;;;;;;16.50;6.72;;;;;;;10.83;44.33;101857.78;5057382;28;20032;-62
2022/12/03 09:57:17;;;;;;;15.88;6.57;;;;;;;10.81;45.05;101840.97;5057030;28;20043;-61
2022/12/03 09:59:43;;;;;;;17.15;7.38;;;;;;;10.87;44.47;101842.38;5055369;28;20131;-62
2022/12/03 10:02:24;;;;;;;15.77;5.90;;;;;;;10.86;44.76;101833.47;5060863;28;20384;-61
2022/12/03 10:04:49;;;;;;;15.95;6.20;;;;;;;10.89;44.99;101835.94;5076385;28;20033;-61
2022/12/03 10:07:15;;;;;;;16.10;5.80;;;;;;;10.93;44.43;101834.75;5060615;28;20562;-61
2022/12/03 10:09:40;;;;;;;16.17;6.05;;;;;;;10.94;44.52;101836.47;5060598;28;20032;-61
2022/12/03 10:12:10;;;;;;;16.27;6.28;;;;;;;10.97;44.17;101828.22;5076117;28;20024;-61
2022/12/03 10:14:35;;;;;;;23.27;7.57;;;;;;;10.99;44.75;101817.41;5077264;28;20024;-61
2022/12/03 10:17:00;;;;;;;17.55;6.93;;;;;;;11.02;44.57;101823.41;5060226;28;20115;-61
2022/12/03 10:19:30;;;;;;;15.18;7.00;;;;;;;11.04;43.69;101816.09;5076820;28;20064;-61
2022/12/03 10:21:56;;;;;;;20.90;7.63;;;;;;;11.06;44.44;101807.94;5076952;28;20443;-61
2022/12/03 10:24:24;;;;;;;17.35;6.75;;;;;;;11.14;43.80;101810.09;5059872;28;20024;-61
2022/12/03 10:26:52;;;;;;;14.75;6.28;;;;;;;11.17;43.90;101804.53;5094964;28;20024;-61
2022/12/03 10:29:37;;;;;;;14.10;5.55;;;;;;;11.21;44.51;101806.00;5077266;28;20094;-61
2022/12/03 10:32:08;;;;;;;22.98;7.25;;;;;;;11.23;44.01;101804.06;5094155;28;20040;-62
2022/12/03 10:34:35;;;;;;;18.50;6.88;;;;;;;11.27;43.82;101802.88;5076880;28;20028;-63
2022/12/03 10:37:18;;;;;;;17.42;7.43;;;;;;;11.31;43.61;101804.38;5076794;28;20067;-61
2022/12/03 10:39:55;;;;;;;15.27;6.07;;;;;;;11.38;43.76;101795.78;5059930;28;20039;-62
2022/12/03 10:42:21;;;;;;;19.05;6.53;;;;;;;11.42;43.58;101785.69;5094496;28;20062;-61
2022/12/03 10:44:46;;;;;;;15.07;6.97;;;;;;;11.47;43.69;101787.06;5075484;28;20028;-61
2022/12/03 10:47:13;;;;;;;16.77;6.75;;;;;;;11.48;43.34;101782.56;5095034;28;20051;-62
2022/12/03 10:49:40;;;;;;;19.70;6.82;;;;;;;11.52;43.45;101776.00;5059442;28;20032;-61
2022/12/03 10:52:21;;;;;;;19.33;6.90;;;;;;;11.75;43.02;101785.09;5030882;28;20101;-62
2022/12/03 10:54:48;;;;;;;16.58;5.68;;;;;;;12.20;42.59;101771.75;5074677;28;20079;-62
2022/12/03 10:57:14;;;;;;;22.73;8.82;;;;;;;12.59;42.40;101758.94;5076073;28;20032;-61
2022/12/03 10:59:40;;;;;;;21.05;7.53;;;;;;;12.91;42.91;101757.25;5060941;28;20572;-61
2022/12/03 11:02:32;;;;;;;19.65;8.05;;;;;;;13.02;42.53;101759.94;5056527;28;20024;-60
2022/12/03 11:04:57;;;;;;;16.73;6.35;;;;;;;13.06;42.37;101749.81;5050893;28;20064;-61
2022/12/03 11:07:24;;;;;;;17.38;5.90;;;;;;;13.11;42.44;101751.19;5055267;28;20115;-61
2022/12/03 11:09:54;;;;;;;13.13;6.43;;;;;;;13.12;42.14;101749.34;5073066;28;20044;-61
2022/12/03 11:12:24;;;;;;;14.65;5.85;;;;;;;13.11;42.08;101756.56;5055469;28;20037;-61
2022/12/03 11:14:49;;;;;;;16.73;6.38;;;;;;;13.05;43.10;101743.56;5055368;28;20029;-61
2022/12/03 11:17:24;;;;;;;13.25;5.57;;;;;;;12.99;42.05;101744.03;5056228;28;20482;-61
2022/12/03 11:19:50;;;;;;;23.17;6.05;;;;;;;12.92;42.86;101739.28;5073786;28;20114;-61
2022/12/03 11:22:24;;;;;;;18.60;6.70;;;;;;;12.90;42.59;101733.19;5038819;28;20041;-61
2022/12/03 11:25:24;;;;;;;12.55;5.70;;;;;;;12.89;42.12;101736.84;5073528;28;20043;-61
2022/12/03 11:28:11;;;;;;;16.70;5.95;;;;;;;12.80;41.81;101733.91;5073494;28;20074;-61
2022/12/03 11:30:55;;;;;;;15.82;5.25;;;;;;;12.79;42.32;101734.00;5073308;28;20043;-61
2022/12/03 11:33:29;;;;;;;15.02;5.72;;;;;;;12.83;42.18;101728.28;5063594;28;20044;-60